Montezuma, NM

2:49 AM MDT on September 23, 2014 (GMT -0600)
Las Vegas Municipal | Change Station
CLOSE
Current Station
Airport
Location: Las Vegas,
Elevation: 6877 ft
Nearby Weather Stations

Elev 6877 ft 35.65 °N, 105.14 °W | Updated 24 minutes ago

Overcast
Overcast
57 °F
Feels Like 57 °F
N
15
Wind Variable Wind from SSW

Today
High -- | Low -- °F
--% Chance of Precip.
Yesterday
High -- | Low -- °F
Precip. -- in
6:49 AM 6:56 PM
Waning Crescent, 1% visible
Pressure 30.32 in
Visibility 1.8 miles
Clouds Overcast 200 ft
Dew Point 56 °F
Humidity 96%
Rainfall 0.00 in
Snow Depth Not available.
UV 0 out of 12
Pollen 2.60 out of 12
Air Quality Not available.
Flu Activity Not available.
SPECI KLVS 230825Z AUTO 20013KT 1 3/4SM BR OVC002 14/13 A3032 RMK AO2 T01390133

More Conditions Fewer Conditions

Pressure 30.32 in
Visibility 1.8 miles
Clouds Overcast 200 ft
Dew Point 56 °F
Humidity 96%
Rainfall 0.00 in
Snow Depth Not available.
UV 0 out of 12
Pollen 2.60 out of 12
Air Quality Not available.
Flu Activity Not available.
SPECI KLVS 230825Z AUTO 20013KT 1 3/4SM BR OVC002 14/13 A3032 RMK AO2 T01390133

More Conditions Fewer Conditions

10-Day Weather Forecast

Almanac

Astronomy

Sep. 23, 2014 Rise Set
Actual Time 6:49 AM MDT 6:56 PM MDT
Civil Twilight 6:24 AM MDT 7:21 PM MDT
Nautical Twilight 5:54 AM MDT 7:51 PM MDT
Astronomical Twilight 5:24 AM MDT 8:21 PM MDT
Moon 6:16 AM MDT 6:37 PM MDT
Length of Visible Light 12h 57m
Length of Day
12h 06m
Tomorrow will be 2m 14s shorter.
Waning Crescent, 1% of the Moon is Illuminated
Today
Waning Crescent
Sep 24
New
Oct 1
First Quarter
Oct 8
Full
Oct 15
Last Quarter

Today's Extremes

State Highs State Lows

Community

WunderPhotos

Upload Photos

1,755,644 photos uploaded!

Nearby

Snow Depth

Station Depth Elevation
Signal Peak 1 in 8360 ft
Wesner Springs 3 in 11120 ft
Senorita Divide #2 0 in 8600 ft
North Costilla 1 in 10600 ft
Bateman 0 in 9300 ft

Earthquake Activity

City Distance Mag. Time & Date
No recent earthquake activity has been reported nearby.
Minimum magnitude displayed is 2.5.

Coastal Water Temperatures

Place Temperature
No Stations Reporting

Nearby Weather Stations